Terminal Aerodrome Forecast
Issued by NWS Cleveland, OH

Home | Current Version | Previous Version | Text Only | Print | Product List | Glossary On
Versions: 1 2 3 4 5 6 7 8 9 10 11 12 13 14 15 16 17 18 19 20 21 22
374
FTUS41 KCLE 110404 AAA
TAFYNG
TAF AMD
KYNG 110404Z 1104/1124 26010KT 1SM -SHSN BKN015 OVC030
      TEMPO 1104/1106 26015G22KT 1/2SM SN VV005
     FM110700 27012KT 5SM -SHSN BKN015 OVC025
     FM111000 30010KT P6SM -SHSN BKN025
     FM111500 30012KT P6SM BKN035=

USA.gov is the U.S. government's official web portal to all federal, state and local government web resources and services.